Aeroporto :
LOGIN :

Iscrizione | Disclaimer

   EN    FR    IT 

 










Sommario :    VFR   VFR Marginale   IFR   IFR Intensivo   IFR Molto Intensivo
Visibilità : 
Base nubi : 
>= 8 km
>= 3000ft
5 / 8 km
1000 / 3000 ft
1500m / 5 km
500 / 1000 ft
800 / 1500m
200 / 500 ft
< 800m
< 200 ft
Simboli :   Temporali  Nebbia  Neve Forte  Precipitazioni Forti  Vento > 20 kt
SIGMETs :   Varie  Temporali  Ghiacco  Turbolenza  Onda orograficha  Ceneri Vulcaniche






- Altitudine del aeroporto : 604 ft
- Codice IATA : LCJ


EPLL - Lodz

ULTIMO METAR :
  • 222100Z 22005KT 170V250 CAVOK 12/08 Q1015

METARs OBSOLETI :
  • 222030Z 22004KT 180V250 CAVOK 12/09 Q1015
  • 222000Z 21004KT 160V280 CAVOK 13/09 Q1015
  • 221930Z 22004KT 170V260 CAVOK 13/09 Q1015
  • 221900Z 20004KT 150V240 CAVOK 14/10 Q1015
  • 221830Z 21005KT 170V230 CAVOK 14/10 Q1016

TAF TAF EPLL
Valido dal 22 a 18 ore il 23 a 18 ore UTC


221730Z 2218/2318 19006KT CAVOK
BECMG 2310/2312 BKN014
TEMPO 2314/2318 -RA BKN007



MetMap, La meteo Aeronautica in un colpo d'occhio ! - Copyright ORBIFLY Dicembre 2007 - Disclaimer

ORBIFLY MET'MAP TEAM :

Programmazione e sviluppo : Alexandra Zaïnal
Concezione : Baudouin d'Aumeries
Aiuto per la programmazione : Marc-Olivier Méhu
Supporto tecnico e logistico : Manuel Goepfert
Aiuto per la traduzione : Arnaldo La Scala

Contatto : metmap@orbifly.com




FONTI E CREDITI :

   NOAA